Time;durP1;ratioP1;P1;durP2;ratioP2;P2;SDS_P1;SDS_P2;PMS_P1;PMS_P2;Temp;Humidity;BMP_temperature;BMP_pressure;BME280_temperature;BME280_humidity;BME280_pressure;Samples;Min_cycle;Max_cycle;Signal;HPM_P1;HPM_P2
2023/06/19 00:00:54;;;;;;;8.27;4.18;;;;;;;19.07;100.00;100870.69;5206794;28;20033;-70
2023/06/19 00:03:24;;;;;;;8.05;3.97;;;;;;;19.04;100.00;100873.88;5206636;28;20471;-70
2023/06/19 00:05:55;;;;;;;9.15;4.68;;;;;;;19.03;100.00;100875.75;5205883;28;20643;-70
2023/06/19 00:08:25;;;;;;;11.38;4.38;;;;;;;19.02;100.00;100875.97;5206416;28;20394;-70
2023/06/19 00:10:56;;;;;;;8.38;4.65;;;;;;;19.03;100.00;100881.19;5206460;28;20029;-70
2023/06/19 00:13:26;;;;;;;8.55;4.32;;;;;;;19.03;100.00;100881.19;5206534;28;20028;-70
2023/06/19 00:16:00;;;;;;;7.18;4.05;;;;;;;19.00;100.00;100889.78;5205649;28;20593;-70
2023/06/19 00:18:30;;;;;;;6.65;3.88;;;;;;;19.01;100.00;100893.31;5206012;28;20116;-70
2023/06/19 00:21:01;;;;;;;15.07;4.55;;;;;;;18.99;100.00;100901.72;5206301;28;20101;-70
2023/06/19 00:23:31;;;;;;;7.80;4.03;;;;;;;18.97;100.00;100894.81;5205969;28;20052;-70
2023/06/19 00:26:03;;;;;;;7.30;4.25;;;;;;;18.97;100.00;100897.53;5205905;28;20364;-70
2023/06/19 00:28:33;;;;;;;7.22;3.97;;;;;;;18.94;100.00;100909.69;5204457;28;20124;-70
2023/06/19 00:31:06;;;;;;;4.68;3.55;;;;;;;18.93;100.00;100913.47;5206234;28;20475;-70
2023/06/19 00:33:37;;;;;;;8.50;4.25;;;;;;;18.94;100.00;100917.03;5206028;28;20033;-70
2023/06/19 00:36:10;;;;;;;9.40;4.03;;;;;;;18.96;100.00;100914.91;5205592;28;20078;-70
2023/06/19 00:38:41;;;;;;;8.60;4.00;;;;;;;18.99;100.00;100923.47;5205736;28;20022;-70
2023/06/19 00:41:12;;;;;;;9.45;4.18;;;;;;;19.06;100.00;100921.50;5205538;28;20033;-70
2023/06/19 00:43:43;;;;;;;6.43;3.63;;;;;;;19.12;100.00;100931.50;5205986;28;20029;-70
2023/06/19 00:46:13;;;;;;;9.00;3.30;;;;;;;19.14;100.00;100925.88;5205380;28;20070;-69
2023/06/19 00:48:44;;;;;;;5.88;3.55;;;;;;;19.21;100.00;100937.50;5205632;28;20033;-70
2023/06/19 00:51:14;;;;;;;6.70;3.20;;;;;;;19.21;100.00;100934.78;5205618;28;20021;-70
2023/06/19 00:53:45;;;;;;;8.32;3.85;;;;;;;19.26;100.00;100928.69;5205540;28;20064;-70
2023/06/19 00:56:18;;;;;;;7.82;3.55;;;;;;;19.26;100.00;100929.53;5205181;28;20029;-70
2023/06/19 00:58:49;;;;;;;6.10;2.90;;;;;;;19.27;100.00;100928.47;5205618;28;20053;-70
2023/06/19 01:01:21;;;;;;;6.75;3.60;;;;;;;19.26;100.00;100929.53;5205886;28;20067;-70
2023/06/19 01:03:51;;;;;;;5.68;3.13;;;;;;;19.26;100.00;100928.69;5205546;28;20033;-70
2023/06/19 01:06:38;;;;;;;5.22;3.35;;;;;;;19.24;100.00;100928.94;5204845;28;20070;-70
2023/06/19 01:09:13;;;;;;;7.50;3.28;;;;;;;19.29;100.00;100929.09;5204441;28;20030;-70
2023/06/19 01:11:46;;;;;;;;;;;;;;;19.30;100.00;100925.31;5206023;28;20026;-70
2023/06/19 01:14:36;;;;;;;8.57;3.53;;;;;;;19.26;100.00;100921.38;5205461;28;19909;-69
2023/06/19 01:17:07;;;;;;;7.82;3.25;;;;;;;19.23;100.00;100923.69;5204370;28;20029;-70
2023/06/19 01:19:38;;;;;;;5.85;3.45;;;;;;;19.19;100.00;100931.47;5204056;28;20006;-70
2023/06/19 01:22:09;;;;;;;9.93;3.70;;;;;;;19.18;100.00;100934.41;5205577;28;20057;-69
2023/06/19 01:24:39;;;;;;;6.80;3.00;;;;;;;19.18;100.00;100932.53;5205157;28;20031;-70
2023/06/19 01:27:10;;;;;;;6.85;3.22;;;;;;;19.18;100.00;100929.81;5204176;28;20033;-70
2023/06/19 01:29:40;;;;;;;8.35;3.42;;;;;;;19.17;100.00;100939.00;5205062;28;20025;-70
2023/06/19 01:32:18;;;;;;;6.03;3.00;;;;;;;19.13;100.00;100945.97;5205168;28;20064;-70
2023/06/19 01:34:51;;;;;;;5.00;3.15;;;;;;;19.10;100.00;100941.78;5204779;28;20104;-70
2023/06/19 01:37:27;;;;;;;5.70;3.05;;;;;;;19.14;100.00;100947.63;5204273;28;20431;-69
2023/06/19 01:39:59;;;;;;;5.78;3.05;;;;;;;19.11;100.00;100942.63;5204684;28;20021;-70
2023/06/19 01:42:29;;;;;;;5.78;2.80;;;;;;;19.05;100.00;100944.31;5204999;28;20087;-70
2023/06/19 01:45:02;;;;;;;4.65;3.20;;;;;;;18.94;100.00;100946.94;5204601;28;20017;-70
2023/06/19 01:47:33;;;;;;;5.03;3.15;;;;;;;18.83;100.00;100946.56;5204194;28;20022;-70
2023/06/19 01:50:05;;;;;;;5.38;3.03;;;;;;;18.76;100.00;100956.63;5204162;28;20028;-69
2023/06/19 01:52:36;;;;;;;5.03;2.75;;;;;;;18.68;100.00;100958.75;5204571;28;20037;-70
2023/06/19 01:55:07;;;;;;;7.65;3.22;;;;;;;18.64;100.00;100961.88;5204626;28;20502;-70
2023/06/19 01:57:37;;;;;;;5.07;3.10;;;;;;;18.61;100.00;100959.59;5203903;28;20025;-70
2023/06/19 02:00:10;;;;;;;5.28;3.10;;;;;;;18.55;100.00;100956.91;5204670;28;20486;-70
2023/06/19 02:02:40;;;;;;;6.20;3.28;;;;;;;18.49;100.00;100960.50;5204174;28;20039;-70
2023/06/19 02:05:11;;;;;;;4.93;3.28;;;;;;;18.47;100.00;100968.84;5204501;28;20025;-70
2023/06/19 02:07:42;;;;;;;7.50;3.22;;;;;;;18.44;100.00;100965.75;5203729;28;20025;-70
2023/06/19 02:10:12;;;;;;;9.40;3.70;;;;;;;18.42;100.00;100973.25;5204252;28;20032;-70
2023/06/19 02:12:43;;;;;;;6.40;3.50;;;;;;;18.36;100.00;100972.25;5203960;28;20483;-70
2023/06/19 02:15:14;;;;;;;7.47;3.63;;;;;;;18.31;100.00;100977.47;5204049;28;20033;-70
2023/06/19 02:17:45;;;;;;;7.45;2.92;;;;;;;18.24;100.00;100974.81;5203116;28;20017;-69
2023/06/19 02:20:17;;;;;;;7.20;3.65;;;;;;;18.23;100.00;100977.72;5204088;28;20049;-70
2023/06/19 02:22:47;;;;;;;7.38;3.72;;;;;;;18.25;100.00;100991.91;5204231;28;20159;-70
2023/06/19 02:25:18;;;;;;;8.20;4.05;;;;;;;18.27;100.00;100990.69;5203523;28;20026;-70
2023/06/19 02:27:49;;;;;;;6.97;3.55;;;;;;;18.29;100.00;100987.75;5203383;28;20075;-70
2023/06/19 02:30:19;;;;;;;10.40;3.85;;;;;;;18.30;100.00;100990.22;5203836;28;20032;-70
2023/06/19 02:32:50;;;;;;;7.70;4.30;;;;;;;18.36;100.00;100994.81;5204018;28;20044;-70
2023/06/19 02:35:20;;;;;;;6.70;3.70;;;;;;;18.41;100.00;100996.03;5203614;28;20018;-70
2023/06/19 02:37:51;;;;;;;9.98;3.65;;;;;;;18.46;100.00;100988.91;5203033;28;20058;-70
2023/06/19 02:40:22;;;;;;;8.57;3.83;;;;;;;18.49;100.00;100998.53;5204015;28;20356;-70
2023/06/19 02:42:52;;;;;;;5.05;3.58;;;;;;;18.52;100.00;100998.09;5203905;28;20475;-70
2023/06/19 02:45:23;;;;;;;8.10;3.75;;;;;;;18.55;100.00;101001.22;5203470;28;20025;-70
2023/06/19 02:47:53;;;;;;;7.50;4.55;;;;;;;18.57;100.00;101006.44;5202848;28;20025;-70
2023/06/19 02:50:24;;;;;;;5.38;3.67;;;;;;;18.59;100.00;100999.75;5203479;28;20497;-70
2023/06/19 02:52:54;;;;;;;6.13;4.30;;;;;;;18.60;100.00;101000.56;5203427;28;20021;-70
2023/06/19 02:55:25;;;;;;;7.97;4.50;;;;;;;18.64;100.00;101007.25;5203465;28;20028;-70
2023/06/19 02:57:55;;;;;;;8.25;4.30;;;;;;;18.64;100.00;101008.09;5202869;28;20250;-70
2023/06/19 03:00:28;;;;;;;8.65;5.03;;;;;;;18.68;100.00;101007.66;5202285;28;20483;-69
2023/06/19 03:02:59;;;;;;;7.15;4.45;;;;;;;18.67;100.00;101017.66;5203004;28;20128;-70
2023/06/19 03:05:29;;;;;;;4.82;3.72;;;;;;;18.70;100.00;101016.44;5203316;28;20112;-69
2023/06/19 03:08:00;;;;;;;10.90;4.78;;;;;;;18.71;100.00;101015.41;5202846;28;20379;-70
2023/06/19 03:10:31;;;;;;;10.85;4.30;;;;;;;18.73;100.00;101011.44;5203216;28;20021;-70
2023/06/19 03:13:01;;;;;;;6.82;4.25;;;;;;;18.76;100.00;101013.69;5203444;28;20065;-70
2023/06/19 03:15:32;;;;;;;7.57;4.70;;;;;;;18.78;100.00;101017.06;5202805;28;20053;-70
2023/06/19 03:18:06;;;;;;;10.35;4.43;;;;;;;18.83;100.00;101019.13;5202621;28;20014;-70
2023/06/19 03:20:36;;;;;;;6.43;4.37;;;;;;;18.84;100.00;101018.06;5203148;28;20067;-70
2023/06/19 03:23:07;;;;;;;8.38;4.22;;;;;;;18.88;100.00;101022.03;5201983;28;20367;-70
2023/06/19 03:25:42;;;;;;;7.95;4.18;;;;;;;18.89;100.00;101034.56;5202659;28;20092;-70
2023/06/19 03:28:12;;;;;;;;;;;;;;;18.89;100.00;101029.97;5203273;28;20030;-70
2023/06/19 03:30:43;;;;;;;8.45;4.82;;;;;;;18.94;100.00;101036.63;5203021;28;20393;-70
2023/06/19 03:33:13;;;;;;;10.82;5.00;;;;;;;18.97;100.00;101036.19;5202819;28;20593;-70
2023/06/19 03:35:44;;;;;;;11.80;4.90;;;;;;;19.02;100.00;101049.97;5202447;28;20410;-70
2023/06/19 03:38:15;;;;;;;14.93;5.18;;;;;;;19.04;100.00;101047.88;5202611;28;20010;-70
2023/06/19 03:40:45;;;;;;;13.10;5.30;;;;;;;19.06;100.00;101052.03;5203036;28;20026;-70
2023/06/19 03:43:16;;;;;;;16.95;6.15;;;;;;;19.07;100.00;101050.13;5203024;28;20029;-70
2023/06/19 03:45:46;;;;;;;10.02;5.50;;;;;;;19.11;100.00;101059.53;5202436;28;20025;-70
2023/06/19 03:48:17;;;;;;;9.05;6.00;;;;;;;19.10;100.00;101057.88;5201358;28;20033;-70
2023/06/19 03:50:48;;;;;;;8.18;5.05;;;;;;;19.11;100.00;101064.97;5202688;28;20026;-70
2023/06/19 03:53:18;;;;;;;10.25;5.30;;;;;;;19.13;100.00;101071.06;5202751;28;20601;-70
2023/06/19 03:55:49;;;;;;;10.93;5.40;;;;;;;19.13;100.00;101071.88;5202434;28;20030;-70
2023/06/19 03:58:19;;;;;;;8.02;4.93;;;;;;;19.15;100.00;101067.03;5202793;28;20013;-69
2023/06/19 04:00:51;;;;;;;10.60;5.35;;;;;;;19.16;100.00;101073.31;5202631;28;20021;-70
2023/06/19 04:03:21;;;;;;;8.80;5.65;;;;;;;19.16;100.00;101070.59;5202754;28;20029;-70
2023/06/19 04:05:52;;;;;;;7.40;4.80;;;;;;;19.17;100.00;101074.16;5202282;28;20029;-70
2023/06/19 04:08:22;;;;;;;7.88;4.78;;;;;;;19.15;100.00;101077.09;5202765;28;20083;-70
2023/06/19 04:10:53;;;;;;;14.95;5.85;;;;;;;19.15;100.00;101087.97;5202768;28;20056;-70
2023/06/19 04:13:25;;;;;;;12.70;5.70;;;;;;;19.15;100.00;101083.38;5202912;28;20018;-70
2023/06/19 04:15:56;;;;;;;9.55;5.47;;;;;;;19.15;100.00;101085.25;5201659;28;20680;-70
2023/06/19 04:18:27;;;;;;;8.50;5.65;;;;;;;19.14;100.00;101095.28;5202468;28;20074;-70
2023/06/19 04:20:58;;;;;;;10.13;5.68;;;;;;;19.15;100.00;101101.56;5202701;28;20144;-70
2023/06/19 04:23:28;;;;;;;14.52;5.32;;;;;;;19.14;100.00;101097.19;5202500;28;20018;-70
2023/06/19 04:25:59;;;;;;;8.65;4.20;;;;;;;19.15;100.00;101096.97;5202279;28;20044;-70
2023/06/19 04:28:29;;;;;;;10.38;5.70;;;;;;;19.18;100.00;101105.72;5202107;28;20025;-70
2023/06/19 04:31:00;;;;;;;8.38;5.13;;;;;;;19.11;100.00;101105.75;5203007;28;20426;-70
2023/06/19 04:33:31;;;;;;;10.98;5.55;;;;;;;19.10;100.00;101104.94;5202740;28;20033;-70
2023/06/19 04:36:01;;;;;;;9.85;4.97;;;;;;;19.09;100.00;101113.31;5202158;28;20610;-70
2023/06/19 04:38:32;;;;;;;9.18;4.80;;;;;;;19.06;100.00;101111.84;5202246;28;20572;-70
2023/06/19 04:41:02;;;;;;;9.32;4.85;;;;;;;19.08;100.00;101120.63;5202313;28;20030;-70
2023/06/19 04:43:34;;;;;;;9.35;4.55;;;;;;;19.09;100.00;101110.59;5201737;28;20372;-70
2023/06/19 04:46:04;;;;;;;9.30;4.68;;;;;;;19.11;100.00;101111.19;5205481;28;20026;-69
2023/06/19 04:48:36;;;;;;;10.30;4.63;;;;;;;19.12;100.00;101121.84;5205818;28;20025;-70
2023/06/19 04:51:06;;;;;;;7.80;4.22;;;;;;;19.13;100.00;101114.56;5205746;28;20594;-70
2023/06/19 04:53:37;;;;;;;11.90;4.32;;;;;;;19.10;100.00;101114.97;5205932;28;20025;-70
2023/06/19 04:56:08;;;;;;;11.68;4.60;;;;;;;19.09;100.00;101124.19;5205373;28;20076;-70
2023/06/19 04:58:45;;;;;;;5.70;3.85;;;;;;;19.06;100.00;101135.47;5205739;28;20022;-70
2023/06/19 05:01:16;;;;;;;9.10;4.18;;;;;;;18.99;100.00;101131.97;5205975;28;20037;-70
2023/06/19 05:03:47;;;;;;;10.45;5.22;;;;;;;18.96;100.00;101132.38;5205645;28;20056;-70
2023/06/19 05:06:17;;;;;;;7.63;4.20;;;;;;;18.97;100.00;101132.16;5205101;28;20029;-70
2023/06/19 05:08:48;;;;;;;10.88;4.93;;;;;;;18.96;100.00;101138.66;5205381;28;20418;-70
2023/06/19 05:11:18;;;;;;;9.52;4.20;;;;;;;18.99;100.00;101131.97;5204295;28;20029;-70
2023/06/19 05:13:49;;;;;;;8.00;4.15;;;;;;;19.01;100.00;101143.44;5205571;28;20082;-69
2023/06/19 05:16:19;;;;;;;8.25;4.60;;;;;;;19.07;100.00;101143.41;5204617;28;20121;-70
2023/06/19 05:18:51;;;;;;;9.93;4.35;;;;;;;19.12;100.00;101142.78;5205320;28;20022;-70
2023/06/19 05:21:21;;;;;;;11.27;5.18;;;;;;;19.20;100.00;101139.00;5205428;28;20079;-70
2023/06/19 05:23:52;;;;;;;12.45;5.60;;;;;;;19.22;100.00;101140.44;5196292;28;20506;-70
2023/06/19 05:26:23;;;;;;;11.13;5.32;;;;;;;19.20;100.00;101136.28;5204129;28;20033;-70
2023/06/19 05:28:53;;;;;;;16.25;5.68;;;;;;;19.21;100.00;101138.75;5204287;28;20026;-70
2023/06/19 05:31:24;;;;;;;9.98;5.10;;;;;;;19.28;100.00;101150.47;5204979;28;20486;-70
2023/06/19 05:33:54;;;;;;;10.57;5.75;;;;;;;19.27;100.00;101159.66;5205115;28;20387;-70
2023/06/19 05:36:25;;;;;;;10.60;5.30;;;;;;;19.28;100.00;101158.63;5204128;28;20021;-70
2023/06/19 05:38:55;;;;;;;11.43;5.85;;;;;;;19.27;100.00;101164.25;5204678;28;20075;-70
2023/06/19 05:41:26;;;;;;;15.18;7.13;;;;;;;19.25;100.00;101155.50;5204279;28;20032;-70
2023/06/19 05:47:25;;;;;;;11.50;7.25;;;;;;;19.35;100.00;101170.31;5192640;28;21609;-70
2023/06/19 05:49:57;;;;;;;14.07;6.78;;;;;;;19.51;100.00;101165.41;5203078;28;20098;-70
2023/06/19 05:52:28;;;;;;;16.00;6.50;;;;;;;19.58;100.00;101169.78;5202932;28;20056;-70
2023/06/19 05:55:00;;;;;;;11.63;6.70;;;;;;;19.69;100.00;101175.63;5202360;28;20029;-70
2023/06/19 05:57:31;;;;;;;9.63;6.78;;;;;;;19.79;100.00;101179.53;5202097;28;20052;-71
2023/06/19 06:00:03;;;;;;;10.93;6.43;;;;;;;19.87;100.00;101181.97;5203652;28;20040;-70
2023/06/19 06:02:34;;;;;;;10.38;6.38;;;;;;;20.11;100.00;101185.78;5203900;28;20033;-71
2023/06/19 06:05:05;;;;;;;14.25;7.22;;;;;;;20.19;100.00;101190.16;5203917;28;20027;-70
2023/06/19 06:07:35;;;;;;;12.25;7.10;;;;;;;20.07;100.00;101195.44;5203078;28;20029;-70
2023/06/19 06:10:06;;;;;;;10.65;6.85;;;;;;;19.92;100.00;101203.09;5203734;28;20095;-70
2023/06/19 06:12:37;;;;;;;11.40;6.97;;;;;;;19.88;100.00;101201.84;5203021;28;20040;-70
2023/06/19 06:15:08;;;;;;;12.30;7.03;;;;;;;19.77;100.00;101205.28;5203513;28;20071;-70
2023/06/19 06:17:38;;;;;;;13.27;7.50;;;;;;;19.70;100.00;101213.50;5201249;28;20546;-70
2023/06/19 06:20:11;;;;;;;11.38;7.30;;;;;;;19.67;100.00;101230.25;5197240;28;20017;-70
2023/06/19 06:22:42;;;;;;;12.88;8.02;;;;;;;19.38;100.00;101234.34;5203552;28;20029;-71
2023/06/19 06:25:13;;;;;;;14.00;8.27;;;;;;;19.38;100.00;101237.06;5203142;28;20029;-72
2023/06/19 06:27:44;;;;;;;15.55;8.18;;;;;;;19.39;100.00;101239.56;5203059;28;20032;-70
2023/06/19 06:30:14;;;;;;;18.33;9.00;;;;;;;19.34;100.00;101244.81;5203392;28;20021;-70
2023/06/19 06:32:45;;;;;;;15.75;8.63;;;;;;;19.32;100.00;101241.44;5203339;28;20026;-71
2023/06/19 06:35:15;;;;;;;13.55;9.00;;;;;;;19.57;100.00;101249.72;5202995;28;20025;-70
2023/06/19 06:37:46;;;;;;;19.15;8.88;;;;;;;19.63;100.00;101258.97;5202696;28;20029;-70
2023/06/19 06:40:18;;;;;;;13.88;8.88;;;;;;;19.81;100.00;101253.63;5216606;28;20033;-70
2023/06/19 06:42:49;;;;;;;14.77;9.05;;;;;;;19.96;100.00;101260.69;5203407;28;20383;-70
2023/06/19 06:45:19;;;;;;;13.60;8.25;;;;;;;20.00;100.00;101257.31;5203247;28;20048;-70
2023/06/19 06:47:50;;;;;;;19.92;9.68;;;;;;;20.11;100.00;101258.50;5202018;28;20033;-70
2023/06/19 06:50:20;;;;;;;21.58;10.68;;;;;;;20.06;100.00;101263.75;5202972;28;20131;-70
2023/06/19 06:52:51;;;;;;;23.05;10.10;;;;;;;20.00;100.00;101268.19;5202692;28;20026;-70
2023/06/19 06:55:21;;;;;;;18.92;10.70;;;;;;;19.96;100.00;101283.28;5202986;28;20155;-70
2023/06/19 06:57:52;;;;;;;16.98;10.15;;;;;;;19.83;100.00;101286.94;5202244;28;20112;-71
2023/06/19 07:00:22;;;;;;;19.55;10.15;;;;;;;19.84;100.00;101285.88;5202713;28;20032;-70
2023/06/19 07:02:53;;;;;;;17.83;11.25;;;;;;;19.98;100.00;101285.78;5202635;28;20472;-70
2023/06/19 07:05:23;;;;;;;19.83;11.18;;;;;;;19.87;100.00;101277.25;5202717;28;20032;-70
2023/06/19 07:07:54;;;;;;;17.95;11.63;;;;;;;19.87;100.00;101292.75;5201524;28;20394;-70
2023/06/19 07:10:24;;;;;;;19.88;12.10;;;;;;;19.89;100.00;101287.97;5202549;28;20033;-71
2023/06/19 07:12:55;;;;;;;19.13;11.27;;;;;;;20.03;100.00;101278.66;5202426;28;20070;-70
2023/06/19 07:15:25;;;;;;;19.88;12.07;;;;;;;20.30;100.00;101273.88;5202545;28;20090;-70
2023/06/19 07:17:56;;;;;;;23.27;12.38;;;;;;;20.53;100.00;101272.47;5201735;28;20029;-70
2023/06/19 07:20:27;;;;;;;20.65;11.45;;;;;;;21.17;100.00;101272.09;5202695;28;20017;-71
2023/06/19 07:22:58;;;;;;;17.73;11.27;;;;;;;21.62;100.00;101280.00;5202513;28;20025;-70
2023/06/19 07:25:28;;;;;;;19.27;11.95;;;;;;;21.95;100.00;101285.06;5201913;28;20057;-70
2023/06/19 07:27:59;;;;;;;18.40;10.57;;;;;;;22.44;100.00;101291.31;5202025;28;20017;-71
2023/06/19 07:30:31;;;;;;;16.30;10.82;;;;;;;22.61;100.00;101293.38;5202476;28;20467;-71
2023/06/19 07:33:01;;;;;;;15.25;10.70;;;;;;;22.91;100.00;101299.59;5202652;28;20382;-71
2023/06/19 07:35:32;;;;;;;15.80;10.00;;;;;;;23.03;100.00;101290.56;5202266;28;20029;-71
2023/06/19 07:38:02;;;;;;;21.20;12.13;;;;;;;22.62;100.00;101293.13;5201535;28;20075;-71
2023/06/19 07:40:32;;;;;;;20.42;12.10;;;;;;;22.39;100.00;101301.25;5202291;28;20028;-70
2023/06/19 07:43:03;;;;;;;17.15;11.48;;;;;;;22.41;100.00;101294.50;5202256;28;20364;-70
2023/06/19 07:45:34;;;;;;;17.52;11.27;;;;;;;22.64;100.00;101292.88;5202210;28;20812;-71
2023/06/19 07:48:04;;;;;;;21.73;13.30;;;;;;;22.77;100.00;101281.72;5201474;28;20026;-71
2023/06/19 07:50:35;;;;;;;19.60;10.45;;;;;;;23.48;100.00;101272.41;5201904;28;20078;-71
2023/06/19 07:53:05;;;;;;;17.85;12.25;;;;;;;23.53;100.00;101272.53;5201932;28;20398;-71
2023/06/19 07:55:36;;;;;;;18.88;12.25;;;;;;;23.19;100.00;101278.88;5201701;28;20091;-71
2023/06/19 07:58:06;;;;;;;19.17;12.68;;;;;;;22.83;100.00;101288.97;5214984;28;20017;-71
2023/06/19 08:00:37;;;;;;;23.55;12.10;;;;;;;22.89;100.00;101284.47;5202083;28;20036;-71
2023/06/19 08:03:07;;;;;;;20.83;13.20;;;;;;;22.85;100.00;101286.84;5202057;28;20025;-71
2023/06/19 08:05:38;;;;;;;19.20;12.07;;;;;;;22.79;100.00;101295.16;5201683;28;20033;-71
2023/06/19 08:08:09;;;;;;;21.38;13.48;;;;;;;22.37;100.00;101282.38;5201827;28;20022;-71
2023/06/19 08:10:40;;;;;;;21.08;12.88;;;;;;;22.48;100.00;101284.28;5201822;28;20025;-71
2023/06/19 08:13:11;;;;;;;16.05;11.90;;;;;;;22.61;100.00;101287.91;5201943;28;20022;-71
2023/06/19 08:15:41;;;;;;;17.73;12.57;;;;;;;22.46;100.00;101293.81;5201563;28;20742;-71
2023/06/19 08:18:12;;;;;;;19.77;11.63;;;;;;;22.79;100.00;101295.16;5203107;28;20033;-71
2023/06/19 08:20:42;;;;;;;16.13;10.40;;;;;;;23.63;100.00;101298.47;5205920;28;20029;-71
2023/06/19 08:23:13;;;;;;;19.80;12.05;;;;;;;24.57;100.00;101295.38;5204589;28;20021;-71
2023/06/19 08:25:43;;;;;;;18.73;12.23;;;;;;;24.73;100.00;101309.09;5205025;28;20567;-72
2023/06/19 08:28:14;;;;;;;18.92;13.13;;;;;;;24.59;100.00;101301.44;5205567;28;20025;-71
2023/06/19 08:30:45;;;;;;;16.65;12.20;;;;;;;24.86;100.00;101310.69;5205842;28;20021;-71
2023/06/19 08:33:16;;;;;;;23.00;11.02;;;;;;;25.21;100.00;101310.44;5205600;28;20033;-71
2023/06/19 08:35:48;;;;;;;16.42;10.70;;;;;;;25.07;100.00;101313.78;5205325;28;20040;-71
2023/06/19 08:38:19;;;;;;;17.48;11.27;;;;;;;25.00;100.00;101316.63;5205051;28;20037;-71
2023/06/19 08:40:50;;;;;;;17.05;10.32;;;;;;;24.87;100.00;101317.81;5205567;28;20479;-71
2023/06/19 08:43:20;;;;;;;17.77;11.43;;;;;;;25.57;100.00;101322.72;5205381;28;20021;-72
2023/06/19 08:46:04;;;;;;;15.23;9.48;;;;;;;25.55;100.00;101321.31;5203952;28;20557;-71
2023/06/19 08:48:36;;;;;;;19.50;12.52;;;;;;;25.21;100.00;101324.16;5204737;28;20037;-72
2023/06/19 08:51:07;;;;;;;17.67;11.27;;;;;;;24.98;100.00;101322.38;5205308;28;20026;-72
2023/06/19 08:53:46;;;;;;;16.77;11.60;;;;;;;25.34;100.00;101338.59;5205211;28;20390;-71
2023/06/19 08:56:16;;;;;;;21.08;12.98;;;;;;;25.88;100.00;101327.81;5204832;28;20494;-71
2023/06/19 08:58:47;;;;;;;21.67;12.90;;;;;;;25.55;100.00;101321.31;5205129;28;20029;-72
2023/06/19 09:01:19;;;;;;;20.23;12.07;;;;;;;25.86;100.00;101327.25;5208418;28;20021;-72
2023/06/19 09:03:52;;;;;;;18.73;12.43;;;;;;;26.34;100.00;101331.88;5213535;28;20151;-72
2023/06/19 09:06:22;;;;;;;17.05;12.15;;;;;;;26.70;100.00;101327.56;5204662;28;20475;-72
2023/06/19 09:09:13;;;;;;;22.83;13.88;;;;;;;25.55;100.00;101321.31;5203639;28;20044;-72
2023/06/19 09:11:43;;;;;;;18.80;12.15;;;;;;;25.82;100.00;101321.41;5204840;28;20053;-72
2023/06/19 09:14:14;;;;;;;18.75;13.38;;;;;;;25.82;100.00;101327.75;5204984;28;20057;-72
2023/06/19 09:16:44;;;;;;;20.13;13.07;;;;;;;25.69;100.00;101339.06;5204344;28;20128;-72
2023/06/19 09:19:20;;;;;;;21.45;13.07;;;;;;;25.48;100.00;101326.16;5204623;28;20025;-72
2023/06/19 09:21:51;;;;;;;17.88;12.32;;;;;;;25.36;100.00;101329.03;5205013;28;20036;-71
2023/06/19 09:24:24;;;;;;;25.40;13.13;;;;;;;25.26;100.00;101328.88;5204392;28;20137;-72
2023/06/19 09:27:07;;;;;;;16.88;10.70;;;;;;;25.11;100.00;101331.41;5217615;28;20123;-72
2023/06/19 09:29:38;;;;;;;20.83;10.25;;;;;;;25.38;100.00;101335.09;5204162;28;20108;-72
2023/06/19 09:32:28;;;;;;;17.08;9.95;;;;;;;25.94;100.00;101333.09;5203282;28;20121;-72
2023/06/19 09:34:58;;;;;;;19.35;11.25;;;;;;;25.90;100.00;101329.19;5204428;28;20044;-72
2023/06/19 09:37:30;;;;;;;14.20;9.45;;;;;;;26.19;100.00;101337.22;5204055;28;20030;-71
2023/06/19 09:40:10;;;;;;;18.92;11.40;;;;;;;25.95;100.00;101334.75;5204396;28;20025;-72
2023/06/19 09:42:42;;;;;;;18.38;11.25;;;;;;;25.67;100.00;101337.69;5204592;28;20029;-72
2023/06/19 09:45:18;;;;;;;17.60;11.80;;;;;;;25.36;100.00;101339.19;5204111;28;20375;-72
2023/06/19 09:47:53;;;;;;;17.63;11.20;;;;;;;25.48;100.00;101335.22;5203631;28;20099;-72
2023/06/19 09:50:27;;;;;;;17.13;11.55;;;;;;;25.66;100.00;101334.13;5204255;28;20025;-71
2023/06/19 09:52:57;;;;;;;17.45;11.05;;;;;;;25.34;100.00;101339.41;5204116;28;20029;-72
2023/06/19 09:55:30;;;;;;;16.83;9.70;;;;;;;25.46;100.00;101334.66;5202732;28;20029;-72
2023/06/19 09:58:02;;;;;;;13.73;8.70;;;;;;;26.04;100.00;101341.47;5203614;28;20032;-72
2023/06/19 10:00:34;;;;;;;12.70;8.55;;;;;;;25.96;100.00;101338.34;5196950;28;20026;-72
2023/06/19 10:03:11;;;;;;;14.25;9.25;;;;;;;25.77;100.00;101335.94;5208293;28;20051;-71
2023/06/19 10:05:43;;;;;;;22.15;11.20;;;;;;;24.83;100.00;101338.59;5206651;28;20069;-71
2023/06/19 10:08:13;;;;;;;21.77;11.98;;;;;;;24.63;100.00;101341.00;5209864;28;20072;-72
2023/06/19 10:11:02;;;;;;;17.60;9.95;;;;;;;24.57;100.00;101333.78;5213049;28;20661;-72
2023/06/19 10:13:35;;;;;;;15.88;9.38;;;;;;;24.68;100.00;101344.66;5213549;28;20025;-71
2023/06/19 10:16:06;;;;;;;20.77;10.18;;;;;;;24.72;100.00;101340.34;5201271;28;20437;-72
2023/06/19 10:18:57;;;;;;;20.88;10.07;;;;;;;24.40;100.00;101337.34;5203161;28;20082;-72
2023/06/19 10:21:27;;;;;;;14.55;9.60;;;;;;;24.56;100.00;101343.09;5208565;28;20029;-71
2023/06/19 10:24:01;;;;;;;15.60;9.38;;;;;;;24.80;100.00;101333.63;5205292;28;20022;-72
2023/06/19 10:26:34;;;;;;;16.08;9.48;;;;;;;24.86;100.00;101335.38;5204240;28;20021;-72
2023/06/19 10:29:15;;;;;;;23.10;10.75;;;;;;;24.97;100.00;101337.19;5209893;28;20489;-72
2023/06/19 10:31:46;;;;;;;19.00;10.68;;;;;;;24.99;100.00;101337.75;5211153;28;20106;-71
2023/06/19 10:34:16;;;;;;;19.05;8.98;;;;;;;25.41;100.00;101331.84;5210532;28;20067;-71
2023/06/19 10:36:47;;;;;;;16.92;8.80;;;;;;;25.78;100.00;101337.59;5203743;28;20025;-71
2023/06/19 10:39:17;;;;;;;14.38;8.70;;;;;;;26.00;100.00;101336.72;5213008;28;20017;-71
2023/06/19 10:41:48;;;;;;;16.77;8.55;;;;;;;26.33;100.00;101339.31;5205222;28;20021;-72
2023/06/19 10:44:25;;;;;;;18.35;8.70;;;;;;;26.49;100.00;101334.00;5207742;28;20378;-72
2023/06/19 10:46:56;;;;;;;18.00;9.18;;;;;;;26.57;100.00;101333.53;5204782;28;20044;-72
2023/06/19 10:49:27;;;;;;;12.70;7.78;;;;;;;26.43;100.00;101327.63;5204410;28;20387;-72
2023/06/19 10:51:59;;;;;;;16.20;9.20;;;;;;;26.38;100.00;101338.53;5211410;28;20036;-72
2023/06/19 10:54:31;;;;;;;14.15;7.95;;;;;;;26.53;100.00;101333.22;5207892;28;20096;-72
2023/06/19 10:57:04;;;;;;;14.13;7.35;;;;;;;26.23;100.00;101338.38;5207606;28;20021;-72
2023/06/19 10:59:35;;;;;;;11.90;7.10;;;;;;;26.32;100.00;101325.81;5206113;28;20013;-72
2023/06/19 11:02:06;;;;;;;13.02;7.20;;;;;;;26.40;100.00;101314.34;5210720;28;20030;-71
2023/06/19 11:04:39;;;;;;;15.82;7.95;;;;;;;26.80;100.00;101315.81;5207938;28;20036;-71
2023/06/19 11:07:10;;;;;;;13.15;7.95;;;;;;;26.81;100.00;101317.50;5210217;28;20055;-72
2023/06/19 11:09:40;;;;;;;14.23;8.27;;;;;;;26.53;100.00;101321.38;5208774;28;20096;-72
2023/06/19 11:12:11;;;;;;;12.05;7.40;;;;;;;26.66;100.00;101318.22;5210122;28;20208;-71
2023/06/19 11:14:42;;;;;;;11.77;6.93;;;;;;;27.04;100.00;101317.09;5208692;28;20029;-72
2023/06/19 11:17:12;;;;;;;12.40;6.95;;;;;;;27.35;100.00;101317.31;5204854;28;20028;-72
2023/06/19 11:19:44;;;;;;;19.02;8.00;;;;;;;27.37;100.00;101323.41;5210824;28;20387;-72
2023/06/19 11:22:14;;;;;;;12.63;6.75;;;;;;;27.73;100.00;101312.59;5207252;28;20025;-72
2023/06/19 11:24:46;;;;;;;11.82;7.30;;;;;;;27.79;100.00;101317.84;5204864;28;20024;-71
2023/06/19 11:27:18;;;;;;;13.38;6.93;;;;;;;27.80;100.00;101313.16;5207180;28;20064;-72
2023/06/19 11:29:55;;;;;;;18.05;8.30;;;;;;;27.71;100.00;101307.31;5206340;28;20018;-72
2023/06/19 11:32:40;;;;;;;13.30;7.47;;;;;;;27.72;100.00;101300.75;5210005;28;20029;-72